sensor_id;sensor_type;location;lat;lon;timestamp;pressure;altitude;pressure_sealevel;temperature;humidity
79612;BME280;69094;48.154;11.536;2024-01-06T00:00:20;94249.34;;;5.12;94.19
79612;BME280;69094;48.154;11.536;2024-01-06T00:02:48;94258.34;;;5.16;93.51
79612;BME280;69094;48.154;11.536;2024-01-06T00:05:20;94256.59;;;5.21;94.62
79612;BME280;69094;48.154;11.536;2024-01-06T00:07:51;94263.25;;;5.23;93.79
79612;BME280;69094;48.154;11.536;2024-01-06T00:10:20;94259.47;;;5.15;94.24
79612;BME280;69094;48.154;11.536;2024-01-06T00:12:49;94246.19;;;5.02;94.37
79612;BME280;69094;48.154;11.536;2024-01-06T00:15:17;94254.22;;;5.19;94.61
79612;BME280;69094;48.154;11.536;2024-01-06T00:17:43;94251.53;;;5.19;94.17
79612;BME280;69094;48.154;11.536;2024-01-06T00:20:08;94255.34;;;5.18;94.14
79612;BME280;69094;48.154;11.536;2024-01-06T00:22:34;94248.22;;;5.13;95.66
79612;BME280;69094;48.154;11.536;2024-01-06T00:25:00;94242.00;;;5.22;95.11
79612;BME280;69094;48.154;11.536;2024-01-06T00:27:25;94243.13;;;5.21;94.20
79612;BME280;69094;48.154;11.536;2024-01-06T00:29:51;94241.72;;;5.14;94.48
79612;BME280;69094;48.154;11.536;2024-01-06T00:32:16;94238.72;;;5.07;95.02
79612;BME280;69094;48.154;11.536;2024-01-06T00:34:41;94241.91;;;5.09;95.55
79612;BME280;69094;48.154;11.536;2024-01-06T00:37:07;94243.94;;;5.12;94.89
79612;BME280;69094;48.154;11.536;2024-01-06T00:39:32;94236.00;;;5.16;94.36
79612;BME280;69094;48.154;11.536;2024-01-06T00:41:57;94251.06;;;5.17;94.38
79612;BME280;69094;48.154;11.536;2024-01-06T00:44:23;94250.59;;;5.15;94.48
79612;BME280;69094;48.154;11.536;2024-01-06T00:46:48;94249.22;;;5.00;94.44
79612;BME280;69094;48.154;11.536;2024-01-06T00:49:14;94238.25;;;5.05;94.89
79612;BME280;69094;48.154;11.536;2024-01-06T00:51:39;94243.66;;;5.05;94.96
79612;BME280;69094;48.154;11.536;2024-01-06T00:54:04;94241.91;;;5.09;94.25
79612;BME280;69094;48.154;11.536;2024-01-06T00:56:29;94239.63;;;5.20;94.46
79612;BME280;69094;48.154;11.536;2024-01-06T00:58:55;94240.13;;;5.13;94.20
79612;BME280;69094;48.154;11.536;2024-01-06T01:01:20;94228.38;;;5.18;94.54
79612;BME280;69094;48.154;11.536;2024-01-06T01:03:46;94229.69;;;5.12;94.28
79612;BME280;69094;48.154;11.536;2024-01-06T01:06:11;94239.69;;;5.03;95.24
79612;BME280;69094;48.154;11.536;2024-01-06T01:08:37;94234.13;;;4.99;95.09
79612;BME280;69094;48.154;11.536;2024-01-06T01:11:02;94236.69;;;4.95;94.91
79612;BME280;69094;48.154;11.536;2024-01-06T01:13:28;94242.72;;;4.92;95.18
79612;BME280;69094;48.154;11.536;2024-01-06T01:15:53;94249.56;;;4.90;95.55
79612;BME280;69094;48.154;11.536;2024-01-06T01:18:19;94246.88;;;4.90;95.60
79612;BME280;69094;48.154;11.536;2024-01-06T01:20:44;94237.47;;;4.96;94.85
79612;BME280;69094;48.154;11.536;2024-01-06T01:23:09;94239.88;;;4.89;95.15
79612;BME280;69094;48.154;11.536;2024-01-06T01:25:35;94236.22;;;4.93;95.41
79612;BME280;69094;48.154;11.536;2024-01-06T01:28:00;94246.34;;;4.96;95.06
79612;BME280;69094;48.154;11.536;2024-01-06T01:30:26;94248.91;;;4.93;95.55
79612;BME280;69094;48.154;11.536;2024-01-06T01:32:52;94241.59;;;5.02;95.76
79612;BME280;69094;48.154;11.536;2024-01-06T01:35:17;94247.00;;;5.02;94.43
79612;BME280;69094;48.154;11.536;2024-01-06T01:37:42;94255.25;;;4.97;94.71
79612;BME280;69094;48.154;11.536;2024-01-06T01:40:08;94253.00;;;5.08;93.68
79612;BME280;69094;48.154;11.536;2024-01-06T01:42:33;94250.63;;;5.06;93.82
79612;BME280;69094;48.154;11.536;2024-01-06T01:44:59;94252.22;;;4.99;93.90
79612;BME280;69094;48.154;11.536;2024-01-06T01:47:25;94248.13;;;4.92;93.34
79612;BME280;69094;48.154;11.536;2024-01-06T01:49:51;94257.94;;;4.97;94.47
79612;BME280;69094;48.154;11.536;2024-01-06T01:52:17;94257.94;;;4.97;93.99
79612;BME280;69094;48.154;11.536;2024-01-06T01:54:45;94261.59;;;4.92;93.89
79612;BME280;69094;48.154;11.536;2024-01-06T01:57:11;94258.13;;;4.92;94.02
79612;BME280;69094;48.154;11.536;2024-01-06T01:59:37;94256.22;;;4.84;94.89
79612;BME280;69094;48.154;11.536;2024-01-06T02:02:03;94255.56;;;4.87;94.48
79612;BME280;69094;48.154;11.536;2024-01-06T02:04:29;94261.13;;;4.82;95.24
79612;BME280;69094;48.154;11.536;2024-01-06T02:06:54;94263.22;;;4.76;95.52
79612;BME280;69094;48.154;11.536;2024-01-06T02:09:20;94262.72;;;4.83;94.55
79612;BME280;69094;48.154;11.536;2024-01-06T02:11:48;94264.13;;;4.89;94.74
79612;BME280;69094;48.154;11.536;2024-01-06T02:14:13;94265.41;;;4.91;94.57
79612;BME280;69094;48.154;11.536;2024-01-06T02:16:38;94264.47;;;4.87;95.09
79612;BME280;69094;48.154;11.536;2024-01-06T02:19:04;94257.16;;;4.79;95.90
79612;BME280;69094;48.154;11.536;2024-01-06T02:21:31;94265.91;;;4.85;95.79
79612;BME280;69094;48.154;11.536;2024-01-06T02:23:56;94255.13;;;4.85;95.42
79612;BME280;69094;48.154;11.536;2024-01-06T02:26:22;94259.56;;;4.81;96.11
79612;BME280;69094;48.154;11.536;2024-01-06T02:28:47;94261.00;;;4.78;96.08
79612;BME280;69094;48.154;11.536;2024-01-06T02:31:14;94264.81;;;4.77;96.84
79612;BME280;69094;48.154;11.536;2024-01-06T02:33:39;94250.84;;;4.75;96.29
79612;BME280;69094;48.154;11.536;2024-01-06T02:36:05;94254.16;;;4.81;95.95
79612;BME280;69094;48.154;11.536;2024-01-06T02:38:30;94263.22;;;4.76;95.94
79612;BME280;69094;48.154;11.536;2024-01-06T02:40:55;94259.88;;;4.79;95.99
79612;BME280;69094;48.154;11.536;2024-01-06T02:43:21;94275.56;;;4.86;96.31
79612;BME280;69094;48.154;11.536;2024-01-06T02:45:48;94261.78;;;4.79;96.31
79612;BME280;69094;48.154;11.536;2024-01-06T02:48:13;94269.22;;;4.82;96.27
79612;BME280;69094;48.154;11.536;2024-01-06T02:50:39;94255.28;;;4.80;95.96
79612;BME280;69094;48.154;11.536;2024-01-06T02:53:04;94268.13;;;4.83;96.18
79612;BME280;69094;48.154;11.536;2024-01-06T02:55:29;94272.56;;;4.87;96.03
79612;BME280;69094;48.154;11.536;2024-01-06T02:57:55;94279.22;;;4.81;96.26
79612;BME280;69094;48.154;11.536;2024-01-06T03:00:20;94279.38;;;4.85;95.24
79612;BME280;69094;48.154;11.536;2024-01-06T03:02:45;94286.50;;;4.81;95.47
79612;BME280;69094;48.154;11.536;2024-01-06T03:05:11;94273.34;;;4.88;95.27
79612;BME280;69094;48.154;11.536;2024-01-06T03:07:36;94275.41;;;4.73;95.55
79612;BME280;69094;48.154;11.536;2024-01-06T03:10:02;94281.28;;;4.75;95.81
79612;BME280;69094;48.154;11.536;2024-01-06T03:12:27;94288.91;;;4.82;94.87
79612;BME280;69094;48.154;11.536;2024-01-06T03:14:53;94284.13;;;4.79;95.22
79612;BME280;69094;48.154;11.536;2024-01-06T03:17:18;94290.63;;;4.78;94.91
79612;BME280;69094;48.154;11.536;2024-01-06T03:19:44;94287.81;;;4.74;95.23
79612;BME280;69094;48.154;11.536;2024-01-06T03:22:09;94295.25;;;4.78;95.01
79612;BME280;69094;48.154;11.536;2024-01-06T03:24:35;94296.81;;;4.79;95.02
79612;BME280;69094;48.154;11.536;2024-01-06T03:27:00;94288.09;;;4.82;93.87
79612;BME280;69094;48.154;11.536;2024-01-06T03:29:25;94294.75;;;4.75;94.64
79612;BME280;69094;48.154;11.536;2024-01-06T03:31:51;94296.50;;;4.80;95.19
79612;BME280;69094;48.154;11.536;2024-01-06T03:34:16;94304.75;;;4.75;93.92
79612;BME280;69094;48.154;11.536;2024-01-06T03:36:41;94301.09;;;4.71;94.90
79612;BME280;69094;48.154;11.536;2024-01-06T03:39:07;94297.94;;;4.69;93.52
79612;BME280;69094;48.154;11.536;2024-01-06T03:41:32;94280.50;;;4.66;94.26
79612;BME280;69094;48.154;11.536;2024-01-06T03:43:58;94295.88;;;4.74;94.03
79612;BME280;69094;48.154;11.536;2024-01-06T03:46:23;94292.22;;;4.62;94.35
79612;BME280;69094;48.154;11.536;2024-01-06T03:48:49;94296.66;;;4.66;94.56
79612;BME280;69094;48.154;11.536;2024-01-06T03:51:14;94302.22;;;4.61;95.15
79612;BME280;69094;48.154;11.536;2024-01-06T03:53:40;94301.56;;;4.64;95.14
79612;BME280;69094;48.154;11.536;2024-01-06T03:56:06;94304.75;;;4.66;95.25
79612;BME280;69094;48.154;11.536;2024-01-06T03:58:31;94306.97;;;4.64;94.46
79612;BME280;69094;48.154;11.536;2024-01-06T04:00:56;94303.66;;;4.67;94.14
79612;BME280;69094;48.154;11.536;2024-01-06T04:03:22;94310.13;;;4.66;94.47
79612;BME280;69094;48.154;11.536;2024-01-06T04:05:47;94310.63;;;4.68;94.37
79612;BME280;69094;48.154;11.536;2024-01-06T04:08:12;94309.50;;;4.69;94.36
79612;BME280;69094;48.154;11.536;2024-01-06T04:10:38;94304.13;;;4.52;94.86
79612;BME280;69094;48.154;11.536;2024-01-06T04:13:03;94315.22;;;4.50;95.50
79612;BME280;69094;48.154;11.536;2024-01-06T04:15:29;94318.38;;;4.44;94.72
79612;BME280;69094;48.154;11.536;2024-01-06T04:17:54;94324.88;;;4.43;94.52
79612;BME280;69094;48.154;11.536;2024-01-06T04:20:19;94323.59;;;4.49;93.56
79612;BME280;69094;48.154;11.536;2024-01-06T04:22:45;94329.78;;;4.49;92.66
79612;BME280;69094;48.154;11.536;2024-01-06T04:25:10;94328.97;;;4.31;93.23
79612;BME280;69094;48.154;11.536;2024-01-06T04:27:35;94334.38;;;4.31;93.04
79612;BME280;69094;48.154;11.536;2024-01-06T04:30:01;94329.78;;;4.41;92.99
79612;BME280;69094;48.154;11.536;2024-01-06T04:32:27;94338.19;;;4.39;92.10
79612;BME280;69094;48.154;11.536;2024-01-06T04:34:52;94330.09;;;4.39;93.28
79612;BME280;69094;48.154;11.536;2024-01-06T04:37:17;94332.34;;;4.46;92.09
79612;BME280;69094;48.154;11.536;2024-01-06T04:39:43;94344.06;;;4.41;92.33
79612;BME280;69094;48.154;11.536;2024-01-06T04:42:08;94329.78;;;4.41;90.66
79612;BME280;69094;48.154;11.536;2024-01-06T04:44:33;94332.78;;;4.30;91.66
79612;BME280;69094;48.154;11.536;2024-01-06T04:46:59;94334.03;;;4.24;92.48
79612;BME280;69094;48.154;11.536;2024-01-06T04:49:24;94342.44;;;4.31;92.79
79612;BME280;69094;48.154;11.536;2024-01-06T04:51:49;94342.31;;;4.28;92.22
79612;BME280;69094;48.154;11.536;2024-01-06T04:54:14;94346.72;;;4.24;90.98
79612;BME280;69094;48.154;11.536;2024-01-06T04:56:40;94344.63;;;4.03;92.98
79612;BME280;69094;48.154;11.536;2024-01-06T04:59:05;94350.00;;;4.03;93.17
79612;BME280;69094;48.154;11.536;2024-01-06T05:01:31;94355.22;;;4.00;91.70
79612;BME280;69094;48.154;11.536;2024-01-06T05:03:57;94345.41;;;3.95;92.01
79612;BME280;69094;48.154;11.536;2024-01-06T05:06:23;94352.22;;;3.93;91.69
79612;BME280;69094;48.154;11.536;2024-01-06T05:08:48;94350.94;;;3.99;90.94
79612;BME280;69094;48.154;11.536;2024-01-06T05:11:14;94349.03;;;3.99;90.64
79612;BME280;69094;48.154;11.536;2024-01-06T05:13:39;94351.88;;;3.94;91.60
79612;BME280;69094;48.154;11.536;2024-01-06T05:16:04;94370.06;;;3.88;91.88
79612;BME280;69094;48.154;11.536;2024-01-06T05:18:30;94365.78;;;3.87;91.92
79612;BME280;69094;48.154;11.536;2024-01-06T05:20:55;94372.00;;;3.97;90.36
79612;BME280;69094;48.154;11.536;2024-01-06T05:23:21;94374.53;;;4.02;90.20
79612;BME280;69094;48.154;11.536;2024-01-06T05:25:46;94358.34;;;3.84;89.97
79612;BME280;69094;48.154;11.536;2024-01-06T05:28:12;94381.19;;;3.96;89.95
79612;BME280;69094;48.154;11.536;2024-01-06T05:30:37;94372.00;;;3.97;90.05
79612;BME280;69094;48.154;11.536;2024-01-06T05:33:02;94377.66;;;3.86;88.54
79612;BME280;69094;48.154;11.536;2024-01-06T05:35:29;94378.44;;;3.87;89.01
79612;BME280;69094;48.154;11.536;2024-01-06T05:37:54;94377.50;;;3.83;89.63
79612;BME280;69094;48.154;11.536;2024-01-06T05:40:19;94383.03;;;3.78;90.06
79612;BME280;69094;48.154;11.536;2024-01-06T05:42:45;94391.56;;;3.80;91.19
79612;BME280;69094;48.154;11.536;2024-01-06T05:45:11;94393.94;;;3.81;90.19
79612;BME280;69094;48.154;11.536;2024-01-06T05:47:40;94397.75;;;3.80;89.94
79612;BME280;69094;48.154;11.536;2024-01-06T05:50:05;94400.31;;;3.85;89.76
79612;BME280;69094;48.154;11.536;2024-01-06T05:52:31;94408.66;;;3.75;90.73
79612;BME280;69094;48.154;11.536;2024-01-06T05:54:56;94414.19;;;3.79;91.49
79612;BME280;69094;48.154;11.536;2024-01-06T05:57:23;94415.53;;;3.90;90.49
79612;BME280;69094;48.154;11.536;2024-01-06T05:59:48;94423.25;;;3.83;91.14
79612;BME280;69094;48.154;11.536;2024-01-06T06:02:14;94415.88;;;3.66;91.60
79612;BME280;69094;48.154;11.536;2024-01-06T06:04:39;94425.75;;;3.79;90.05
79612;BME280;69094;48.154;11.536;2024-01-06T06:07:05;94435.38;;;3.72;91.03
79612;BME280;69094;48.154;11.536;2024-01-06T06:09:30;94438.34;;;3.70;89.80
79612;BME280;69094;48.154;11.536;2024-01-06T06:11:55;94436.13;;;3.63;89.84
79612;BME280;69094;48.154;11.536;2024-01-06T06:14:20;94437.06;;;3.67;89.90
79612;BME280;69094;48.154;11.536;2024-01-06T06:16:46;94450.38;;;3.64;90.38
79612;BME280;69094;48.154;11.536;2024-01-06T06:19:13;94452.28;;;3.63;90.85
79612;BME280;69094;48.154;11.536;2024-01-06T06:21:38;94447.19;;;3.62;91.65
79612;BME280;69094;48.154;11.536;2024-01-06T06:24:04;94444.63;;;3.57;91.45
79612;BME280;69094;48.154;11.536;2024-01-06T06:26:29;94453.19;;;3.59;91.84
79612;BME280;69094;48.154;11.536;2024-01-06T06:28:55;94463.78;;;3.55;92.17
79612;BME280;69094;48.154;11.536;2024-01-06T06:31:20;94455.81;;;3.50;91.65
79612;BME280;69094;48.154;11.536;2024-01-06T06:33:45;94460.75;;;3.57;92.37
79612;BME280;69094;48.154;11.536;2024-01-06T06:36:11;94466.81;;;3.62;91.85
79612;BME280;69094;48.154;11.536;2024-01-06T06:38:36;94462.66;;;3.56;92.71
79612;BME280;69094;48.154;11.536;2024-01-06T06:41:02;94475.19;;;3.61;92.36
79612;BME280;69094;48.154;11.536;2024-01-06T06:43:27;94474.41;;;3.60;92.21
79612;BME280;69094;48.154;11.536;2024-01-06T06:45:53;94481.06;;;3.63;92.10
79612;BME280;69094;48.154;11.536;2024-01-06T06:48:20;94485.47;;;3.59;90.99
79612;BME280;69094;48.154;11.536;2024-01-06T06:50:46;94487.53;;;3.62;91.20
79612;BME280;69094;48.154;11.536;2024-01-06T06:53:11;94487.03;;;3.60;90.21
79612;BME280;69094;48.154;11.536;2024-01-06T06:55:38;94488.28;;;3.31;90.49
79612;BME280;69094;48.154;11.536;2024-01-06T06:58:03;94478.81;;;3.34;91.51
79612;BME280;69094;48.154;11.536;2024-01-06T07:00:30;94487.84;;;3.38;91.57
79612;BME280;69094;48.154;11.536;2024-01-06T07:02:55;94491.53;;;3.42;90.38
79612;BME280;69094;48.154;11.536;2024-01-06T07:05:20;94492.81;;;3.44;90.83
79612;BME280;69094;48.154;11.536;2024-01-06T07:07:46;94490.13;;;3.44;89.91
79612;BME280;69094;48.154;11.536;2024-01-06T07:10:12;94494.28;;;3.51;89.90
79612;BME280;69094;48.154;11.536;2024-01-06T07:12:38;94486.88;;;3.56;89.79
79612;BME280;69094;48.154;11.536;2024-01-06T07:15:03;94488.34;;;3.40;89.80
79612;BME280;69094;48.154;11.536;2024-01-06T07:17:29;94482.28;;;3.34;90.42
79612;BME280;69094;48.154;11.536;2024-01-06T07:19:54;94482.53;;;3.47;90.11
79612;BME280;69094;48.154;11.536;2024-01-06T07:22:20;94491.22;;;3.43;90.66
79612;BME280;69094;48.154;11.536;2024-01-06T07:24:45;94498.81;;;3.41;90.46
79612;BME280;69094;48.154;11.536;2024-01-06T07:27:11;94509.06;;;3.39;90.63
79612;BME280;69094;48.154;11.536;2024-01-06T07:29:37;94510.09;;;3.30;90.52
79612;BME280;69094;48.154;11.536;2024-01-06T07:32:04;94511.69;;;3.31;90.30
79612;BME280;69094;48.154;11.536;2024-01-06T07:34:31;94510.72;;;3.27;90.77
79612;BME280;69094;48.154;11.536;2024-01-06T07:36:56;94517.88;;;3.31;90.05
79612;BME280;69094;48.154;11.536;2024-01-06T07:39:22;94513.34;;;3.40;89.59
79612;BME280;69094;48.154;11.536;2024-01-06T07:41:49;94521.22;;;3.37;89.39
79612;BME280;69094;48.154;11.536;2024-01-06T07:44:14;94533.66;;;3.47;89.76
79612;BME280;69094;48.154;11.536;2024-01-06T07:46:41;94530.56;;;3.39;90.02
79612;BME280;69094;48.154;11.536;2024-01-06T07:49:07;94537.63;;;3.49;90.99
79612;BME280;69094;48.154;11.536;2024-01-06T07:51:32;94535.53;;;3.46;89.33
79612;BME280;69094;48.154;11.536;2024-01-06T07:54:00;94540.91;;;3.46;89.51
79612;BME280;69094;48.154;11.536;2024-01-06T07:56:25;94542.81;;;3.45;90.31
79612;BME280;69094;48.154;11.536;2024-01-06T07:58:51;94543.91;;;3.44;90.10
79612;BME280;69094;48.154;11.536;2024-01-06T08:01:17;94552.47;;;3.47;90.12
79612;BME280;69094;48.154;11.536;2024-01-06T08:03:43;94557.22;;;3.50;89.76
79612;BME280;69094;48.154;11.536;2024-01-06T08:06:09;94546.03;;;3.34;89.27
79612;BME280;69094;48.154;11.536;2024-01-06T08:08:35;94558.75;;;3.42;88.63
79612;BME280;69094;48.154;11.536;2024-01-06T08:11:01;94555.06;;;3.38;89.92
79612;BME280;69094;48.154;11.536;2024-01-06T08:13:26;94551.31;;;3.39;89.07
79612;BME280;69094;48.154;11.536;2024-01-06T08:15:51;94553.50;;;3.37;88.62
79612;BME280;69094;48.154;11.536;2024-01-06T08:18:17;94556.38;;;3.40;87.99
79612;BME280;69094;48.154;11.536;2024-01-06T08:20:43;94561.28;;;3.38;88.49
79612;BME280;69094;48.154;11.536;2024-01-06T08:23:08;94563.69;;;3.26;87.79
79612;BME280;69094;48.154;11.536;2024-01-06T08:25:34;94561.13;;;3.21;89.50
79612;BME280;69094;48.154;11.536;2024-01-06T08:27:59;94564.66;;;3.30;89.13
79612;BME280;69094;48.154;11.536;2024-01-06T08:30:26;94558.00;;;3.28;88.75
79612;BME280;69094;48.154;11.536;2024-01-06T08:32:51;94563.38;;;3.28;87.38
79612;BME280;69094;48.154;11.536;2024-01-06T08:35:17;94557.09;;;3.32;87.97
79612;BME280;69094;48.154;11.536;2024-01-06T08:37:43;94563.56;;;3.31;87.65
79612;BME280;69094;48.154;11.536;2024-01-06T08:40:11;94559.28;;;3.30;87.71
79612;BME280;69094;48.154;11.536;2024-01-06T08:42:37;94560.28;;;3.34;87.58
79612;BME280;69094;48.154;11.536;2024-01-06T08:45:02;94570.81;;;3.44;87.32
79612;BME280;69094;48.154;11.536;2024-01-06T08:47:28;94581.56;;;3.44;86.59
79612;BME280;69094;48.154;11.536;2024-01-06T08:49:53;94576.28;;;3.39;86.91
79612;BME280;69094;48.154;11.536;2024-01-06T08:52:18;94579.19;;;3.43;86.85
79612;BME280;69094;48.154;11.536;2024-01-06T08:54:44;94577.66;;;3.51;86.01
79612;BME280;69094;48.154;11.536;2024-01-06T08:57:09;94582.03;;;3.60;86.30
79612;BME280;69094;48.154;11.536;2024-01-06T08:59:35;94592.31;;;3.44;85.81
79612;BME280;69094;48.154;11.536;2024-01-06T09:02:00;94587.56;;;3.28;85.90
79612;BME280;69094;48.154;11.536;2024-01-06T09:04:26;94583.41;;;3.21;87.65
79612;BME280;69094;48.154;11.536;2024-01-06T09:06:51;94580.00;;;3.30;87.50
79612;BME280;69094;48.154;11.536;2024-01-06T09:09:17;94592.72;;;3.38;86.38
79612;BME280;69094;48.154;11.536;2024-01-06T09:11:42;94593.34;;;3.35;86.95
79612;BME280;69094;48.154;11.536;2024-01-06T09:14:09;94593.34;;;3.35;86.82
79612;BME280;69094;48.154;11.536;2024-01-06T09:16:36;94593.34;;;3.35;87.24
79612;BME280;69094;48.154;11.536;2024-01-06T09:19:02;94596.13;;;3.43;86.04
79612;BME280;69094;48.154;11.536;2024-01-06T09:21:27;94592.31;;;3.44;86.66
79612;BME280;69094;48.154;11.536;2024-01-06T09:23:53;94588.53;;;3.45;86.45
79612;BME280;69094;48.154;11.536;2024-01-06T09:26:18;94597.91;;;3.48;85.79
79612;BME280;69094;48.154;11.536;2024-01-06T09:28:43;94594.09;;;3.49;85.46
79612;BME280;69094;48.154;11.536;2024-01-06T09:31:09;94599.84;;;3.56;85.24
79612;BME280;69094;48.154;11.536;2024-01-06T09:33:34;94598.94;;;3.61;85.54
79612;BME280;69094;48.154;11.536;2024-01-06T09:36:00;94598.28;;;3.55;86.78
79612;BME280;69094;48.154;11.536;2024-01-06T09:38:25;94595.28;;;3.57;86.12
79612;BME280;69094;48.154;11.536;2024-01-06T09:40:53;94608.94;;;3.60;86.73
79612;BME280;69094;48.154;11.536;2024-01-06T09:43:19;94608.59;;;3.62;85.85
79612;BME280;69094;48.154;11.536;2024-01-06T09:45:45;94609.22;;;3.59;84.27
79612;BME280;69094;48.154;11.536;2024-01-06T09:48:13;94613.94;;;3.53;85.23
79612;BME280;69094;48.154;11.536;2024-01-06T09:50:42;94614.78;;;3.62;84.03
79612;BME280;69094;48.154;11.536;2024-01-06T09:53:10;94610.63;;;3.56;85.07
79612;BME280;69094;48.154;11.536;2024-01-06T09:55:36;94606.44;;;3.50;85.67
79612;BME280;69094;48.154;11.536;2024-01-06T09:58:02;94613.31;;;3.56;85.96
79612;BME280;69094;48.154;11.536;2024-01-06T10:00:28;94612.63;;;3.51;86.48
79612;BME280;69094;48.154;11.536;2024-01-06T10:02:54;94618.31;;;3.49;86.31
79612;BME280;69094;48.154;11.536;2024-01-06T10:05:21;94616.53;;;3.44;87.52
79612;BME280;69094;48.154;11.536;2024-01-06T10:07:48;94617.19;;;3.50;86.10
79612;BME280;69094;48.154;11.536;2024-01-06T10:10:14;94615.91;;;3.48;86.85
79612;BME280;69094;48.154;11.536;2024-01-06T10:12:42;94615.78;;;3.53;87.17
79612;BME280;69094;48.154;11.536;2024-01-06T10:15:08;94617.59;;;3.57;87.20
79612;BME280;69094;48.154;11.536;2024-01-06T10:17:41;94608.31;;;3.63;86.99
79612;BME280;69094;48.154;11.536;2024-01-06T10:20:11;94609.59;;;3.66;86.09
79612;BME280;69094;48.154;11.536;2024-01-06T10:22:37;94587.06;;;3.62;86.39
79612;BME280;69094;48.154;11.536;2024-01-06T10:25:12;94586.97;;;3.67;87.09
79612;BME280;69094;48.154;11.536;2024-01-06T10:27:39;94584.53;;;3.79;86.18
79612;BME280;69094;48.154;11.536;2024-01-06T10:30:08;94582.03;;;3.83;85.22
79612;BME280;69094;48.154;11.536;2024-01-06T10:32:35;94581.28;;;3.91;84.81
79612;BME280;69094;48.154;11.536;2024-01-06T10:35:01;94592.72;;;3.97;85.04
79612;BME280;69094;48.154;11.536;2024-01-06T10:37:29;94591.88;;;4.10;87.01
79612;BME280;69094;48.154;11.536;2024-01-06T10:40:12;94586.78;;;3.86;85.56
79612;BME280;69094;48.154;11.536;2024-01-06T10:42:38;94602.06;;;3.99;85.64
79612;BME280;69094;48.154;11.536;2024-01-06T10:45:07;94599.09;;;4.01;85.48
79612;BME280;69094;48.154;11.536;2024-01-06T10:47:36;94583.47;;;3.89;84.02
79612;BME280;69094;48.154;11.536;2024-01-06T10:50:02;94595.72;;;3.95;84.48
79612;BME280;69094;48.154;11.536;2024-01-06T10:52:29;94583.31;;;3.85;84.91
79612;BME280;69094;48.154;11.536;2024-01-06T10:54:54;94586.19;;;3.89;85.13
79612;BME280;69094;48.154;11.536;2024-01-06T10:57:21;94580.78;;;3.89;85.49
79612;BME280;69094;48.154;11.536;2024-01-06T10:59:49;94579.72;;;3.90;84.48
79612;BME280;69094;48.154;11.536;2024-01-06T11:02:15;94582.28;;;3.95;84.16
79612;BME280;69094;48.154;11.536;2024-01-06T11:04:48;94587.34;;;3.97;84.85
79612;BME280;69094;48.154;11.536;2024-01-06T11:07:15;94586.13;;;4.03;84.37
79612;BME280;69094;48.154;11.536;2024-01-06T11:09:47;94589.53;;;3.95;84.56
79612;BME280;69094;48.154;11.536;2024-01-06T11:12:16;94576.44;;;3.79;86.57
79612;BME280;69094;48.154;11.536;2024-01-06T11:14:41;94583.06;;;3.73;85.59
79612;BME280;69094;48.154;11.536;2024-01-06T11:17:07;94582.16;;;3.78;84.97
79612;BME280;69094;48.154;11.536;2024-01-06T11:24:50;94576.06;;;3.95;84.47
79612;BME280;69094;48.154;11.536;2024-01-06T11:27:23;94574.88;;;3.78;84.66
79612;BME280;69094;48.154;11.536;2024-01-06T11:29:52;94571.56;;;3.81;84.41
79612;BME280;69094;48.154;11.536;2024-01-06T11:32:28;94580.25;;;3.78;84.74
79612;BME280;69094;48.154;11.536;2024-01-06T11:34:55;94578.97;;;3.76;86.01
79612;BME280;69094;48.154;11.536;2024-01-06T11:43:06;94578.84;;;3.81;85.52
79612;BME280;69094;48.154;11.536;2024-01-06T11:45:38;94570.66;;;3.86;85.80
79612;BME280;69094;48.154;11.536;2024-01-06T11:48:08;94568.81;;;3.95;83.79
79612;BME280;69094;48.154;11.536;2024-01-06T11:50:38;94571.50;;;3.95;84.37
79612;BME280;69094;48.154;11.536;2024-01-06T11:53:04;94562.31;;;3.96;84.81
79612;BME280;69094;48.154;11.536;2024-01-06T11:55:30;94558.38;;;4.02;85.33
79612;BME280;69094;48.154;11.536;2024-01-06T11:58:03;94558.56;;;4.06;85.89
79612;BME280;69094;48.154;11.536;2024-01-06T12:00:29;94553.34;;;4.09;86.23
79612;BME280;69094;48.154;11.536;2024-01-06T12:02:55;94544.00;;;4.07;85.35
79612;BME280;69094;48.154;11.536;2024-01-06T12:05:21;94559.09;;;4.17;85.61
79612;BME280;69094;48.154;11.536;2024-01-06T12:07:57;94548.78;;;4.10;85.99
79612;BME280;69094;48.154;11.536;2024-01-06T12:10:23;94542.66;;;4.18;85.88
79612;BME280;69094;48.154;11.536;2024-01-06T12:13:02;94536.75;;;4.07;85.29
79612;BME280;69094;48.154;11.536;2024-01-06T12:15:28;94537.66;;;4.03;86.16
79612;BME280;69094;48.154;11.536;2024-01-06T12:17:53;94533.34;;;3.93;86.88
79612;BME280;69094;48.154;11.536;2024-01-06T12:20:19;94539.66;;;3.97;87.91
79612;BME280;69094;48.154;11.536;2024-01-06T12:22:44;94540.63;;;3.93;87.45
79612;BME280;69094;48.154;11.536;2024-01-06T12:25:10;94538.72;;;3.93;87.45
79612;BME280;69094;48.154;11.536;2024-01-06T12:27:35;94543.22;;;4.06;87.13
79612;BME280;69094;48.154;11.536;2024-01-06T12:30:01;94537.06;;;4.15;86.35
79612;BME280;69094;48.154;11.536;2024-01-06T12:32:28;94536.47;;;4.18;85.57
79612;BME280;69094;48.154;11.536;2024-01-06T12:34:53;94540.28;;;4.57;86.34
79612;BME280;69094;48.154;11.536;2024-01-06T12:37:18;94539.59;;;4.42;85.11
79612;BME280;69094;48.154;11.536;2024-01-06T12:39:44;94543.53;;;4.36;84.60
79612;BME280;69094;48.154;11.536;2024-01-06T12:42:15;94543.66;;;4.31;84.49
79612;BME280;69094;48.154;11.536;2024-01-06T12:44:41;94549.38;;;4.07;84.90
79612;BME280;69094;48.154;11.536;2024-01-06T12:47:07;94551.47;;;4.10;88.55
79612;BME280;69094;48.154;11.536;2024-01-06T12:49:33;94548.91;;;4.05;87.09
79612;BME280;69094;48.154;11.536;2024-01-06T12:51:58;94549.00;;;4.22;86.07
79612;BME280;69094;48.154;11.536;2024-01-06T12:54:23;94551.09;;;4.65;83.94
79612;BME280;69094;48.154;11.536;2024-01-06T12:56:49;94542.28;;;4.42;81.73
79612;BME280;69094;48.154;11.536;2024-01-06T12:59:14;94549.22;;;4.35;81.89
79612;BME280;69094;48.154;11.536;2024-01-06T13:01:40;94550.63;;;4.01;82.95
79612;BME280;69094;48.154;11.536;2024-01-06T13:04:05;94548.09;;;4.04;82.97